createdAt,value
2018-08-03T00:01:22.461Z,24.35
2018-08-03T00:03:53.075Z,24.29
2018-08-03T00:06:23.753Z,24.24
2018-08-03T00:08:54.434Z,24.19
2018-08-03T00:11:25.128Z,24.14
2018-08-03T00:13:55.801Z,24.08
2018-08-03T00:16:26.507Z,24.04
2018-08-03T00:18:57.190Z,24.00
2018-08-03T00:21:28.034Z,23.96
2018-08-03T00:23:58.812Z,23.91
2018-08-03T00:26:29.503Z,23.85
2018-08-03T00:29:00.257Z,23.79
2018-08-03T00:31:30.918Z,23.76
2018-08-03T00:34:01.637Z,23.73
2018-08-03T00:36:32.327Z,23.66
2018-08-03T00:39:03.045Z,23.62
2018-08-03T00:41:33.724Z,23.55
2018-08-03T00:44:04.480Z,23.50
2018-08-03T00:46:35.153Z,23.45
2018-08-03T00:49:05.842Z,23.40
2018-08-03T00:51:36.567Z,23.37
2018-08-03T00:54:07.326Z,23.33
2018-08-03T00:56:37.962Z,23.29
2018-08-03T00:59:08.300Z,23.26
2018-08-03T01:01:38.918Z,23.23
2018-08-03T01:04:09.639Z,23.20
2018-08-03T01:06:40.340Z,23.16
2018-08-03T01:09:12.679Z,23.14
2018-08-03T01:11:43.328Z,23.10
2018-08-03T01:14:14.029Z,23.08
2018-08-03T01:16:44.668Z,23.06
2018-08-03T01:19:15.851Z,23.03
2018-08-03T01:21:46.551Z,23.03
2018-08-03T01:24:17.239Z,23.00
2018-08-03T01:26:47.863Z,23.01
2018-08-03T01:29:18.534Z,22.98
2018-08-03T01:31:49.191Z,22.98
2018-08-03T01:34:19.930Z,22.98
2018-08-03T01:36:50.615Z,22.99
2018-08-03T01:39:21.239Z,23.03
2018-08-03T01:41:51.897Z,23.00
2018-08-03T01:44:22.548Z,22.97
2018-08-03T01:46:53.227Z,22.94
2018-08-03T01:49:23.852Z,22.93
2018-08-03T01:51:54.531Z,22.92
2018-08-03T01:54:25.190Z,22.90
2018-08-03T01:56:55.874Z,22.85
2018-08-03T01:59:26.564Z,22.81
2018-08-03T02:01:57.212Z,22.80
2018-08-03T02:04:27.843Z,22.77
2018-08-03T02:06:58.554Z,22.73
2018-08-03T02:09:29.211Z,22.72
2018-08-03T02:11:59.876Z,22.75
2018-08-03T02:14:30.595Z,22.77
2018-08-03T02:17:01.512Z,22.78
2018-08-03T02:19:32.164Z,22.78
2018-08-03T02:22:02.796Z,22.69
2018-08-03T02:24:33.445Z,22.70
2018-08-03T02:27:04.101Z,22.70
2018-08-03T02:29:34.786Z,22.72
2018-08-03T02:32:05.439Z,22.72
2018-08-03T02:34:36.144Z,22.70
2018-08-03T02:37:06.808Z,22.63
2018-08-03T02:39:37.452Z,22.60
2018-08-03T02:42:08.242Z,22.57
2018-08-03T02:44:38.889Z,22.57
2018-08-03T02:47:09.521Z,22.58
2018-08-03T02:49:40.223Z,22.61
2018-08-03T02:52:11.391Z,22.67
2018-08-03T02:54:42.040Z,22.66
2018-08-03T02:57:12.698Z,22.64
2018-08-03T02:59:43.360Z,22.62
2018-08-03T03:02:14.040Z,22.57
2018-08-03T03:04:44.713Z,22.55
2018-08-03T03:07:15.414Z,22.51
2018-08-03T03:09:46.104Z,22.45
2018-08-03T03:12:16.732Z,22.37
2018-08-03T03:14:47.404Z,22.33
2018-08-03T03:17:32.482Z,22.27
2018-08-03T03:20:03.256Z,22.21
2018-08-03T03:22:33.906Z,22.17
2018-08-03T03:25:04.655Z,22.13
2018-08-03T03:27:35.327Z,22.09
2018-08-03T03:30:07.715Z,22.07
2018-08-03T03:32:38.458Z,22.02
2018-08-03T03:35:09.204Z,21.96
2018-08-03T03:37:39.824Z,21.93
2018-08-03T03:40:10.489Z,21.95
2018-08-03T03:42:41.102Z,21.90
2018-08-03T03:45:11.759Z,21.82
2018-08-03T03:47:42.398Z,21.83
2018-08-03T03:50:13.062Z,21.85
2018-08-03T03:52:43.715Z,21.69
2018-08-03T03:55:14.452Z,21.65
2018-08-03T03:57:45.129Z,21.61
2018-08-03T04:00:15.800Z,21.61
2018-08-03T04:02:46.495Z,21.55
2018-08-03T04:05:17.192Z,21.47
2018-08-03T04:07:47.904Z,21.46
2018-08-03T04:10:18.532Z,21.48
2018-08-03T04:12:49.208Z,21.49
2018-08-03T04:15:19.887Z,21.47
2018-08-03T04:17:50.576Z,21.49
2018-08-03T04:20:21.246Z,21.46
2018-08-03T04:22:51.944Z,21.47
2018-08-03T04:25:22.652Z,21.50
2018-08-03T04:27:53.326Z,21.52
2018-08-03T04:30:23.995Z,21.55
2018-08-03T04:32:54.603Z,21.57
2018-08-03T04:35:25.241Z,21.59
2018-08-03T04:37:55.915Z,21.61
2018-08-03T04:40:26.557Z,21.64
2018-08-03T04:42:57.218Z,21.69
2018-08-03T04:45:27.820Z,21.70
2018-08-03T04:47:58.492Z,21.74
2018-08-03T04:50:29.342Z,21.78
2018-08-03T04:53:00.019Z,21.83
2018-08-03T04:55:30.666Z,21.90
2018-08-03T04:58:01.387Z,21.93
2018-08-03T05:00:32.114Z,21.95
2018-08-03T05:03:02.870Z,22.04
2018-08-03T05:05:33.523Z,22.06
2018-08-03T05:08:04.281Z,22.13
2018-08-03T05:10:34.965Z,22.23
2018-08-03T05:13:05.680Z,22.21
2018-08-03T05:15:36.401Z,22.20
2018-08-03T05:18:07.115Z,22.21
2018-08-03T05:20:37.826Z,22.32
2018-08-03T05:23:08.448Z,22.37
2018-08-03T05:25:39.160Z,22.43
2018-08-03T05:28:09.854Z,22.53
2018-08-03T05:30:40.539Z,22.56
2018-08-03T05:33:11.484Z,22.64
2018-08-03T05:35:42.163Z,22.81
2018-08-03T05:40:42.226Z,23.05
2018-08-03T05:43:12.949Z,23.05
2018-08-03T05:45:43.560Z,23.03
2018-08-03T05:48:14.270Z,23.06
2018-08-03T05:50:44.944Z,23.07
2018-08-03T05:53:15.609Z,23.17
2018-08-03T05:55:46.256Z,23.09
2018-08-03T05:58:17.291Z,23.14
2018-08-03T06:00:48.035Z,23.21
2018-08-03T06:03:18.911Z,23.32
2018-08-03T06:05:49.597Z,23.40
2018-08-03T06:08:20.350Z,23.42
2018-08-03T06:10:51.004Z,23.49
2018-08-03T06:13:21.646Z,23.57
2018-08-03T06:15:52.312Z,23.71
2018-08-03T06:18:22.999Z,23.82
2018-08-03T06:20:53.671Z,23.94
2018-08-03T06:23:24.307Z,24.05
2018-08-03T06:25:55.020Z,24.18
2018-08-03T06:28:25.728Z,24.29
2018-08-03T06:30:56.409Z,24.45
2018-08-03T06:33:27.047Z,24.52
2018-08-03T06:35:57.879Z,24.60
2018-08-03T06:38:28.546Z,24.64
2018-08-03T06:40:59.232Z,24.79
2018-08-03T06:43:29.890Z,24.92
2018-08-03T06:46:00.554Z,25.06
2018-08-03T06:48:31.257Z,25.24
2018-08-03T06:51:01.906Z,25.34
2018-08-03T06:53:32.565Z,25.49
2018-08-03T06:56:03.378Z,25.62
2018-08-03T06:58:34.036Z,25.76
2018-08-03T07:01:04.810Z,25.97
2018-08-03T07:03:35.480Z,26.09
2018-08-03T07:06:06.199Z,26.30
2018-08-03T07:08:36.866Z,26.46
2018-08-03T07:11:07.867Z,26.61
2018-08-03T07:13:38.519Z,26.71
2018-08-03T07:16:09.190Z,26.81
2018-08-03T07:18:39.852Z,26.89
2018-08-03T07:21:11.310Z,27.07
2018-08-03T07:23:42.021Z,27.19
2018-08-03T07:26:12.775Z,27.32
2018-08-03T07:28:43.463Z,27.36
2018-08-03T07:31:14.089Z,27.54
2018-08-03T07:33:44.873Z,27.77
2018-08-03T07:36:15.607Z,27.97
2018-08-03T07:38:46.316Z,28.13
2018-08-03T07:41:17.018Z,28.23
2018-08-03T07:43:47.678Z,28.41
2018-08-03T07:46:18.317Z,28.56
2018-08-03T07:48:48.946Z,28.65
2018-08-03T07:51:19.613Z,28.73
2018-08-03T07:53:50.237Z,28.83
2018-08-03T07:56:20.891Z,29.04
2018-08-03T07:58:51.844Z,29.33
2018-08-03T08:01:22.515Z,29.66
2018-08-03T08:03:53.740Z,29.97
2018-08-03T08:06:24.422Z,30.27
2018-08-03T08:08:55.136Z,30.46
2018-08-03T08:11:25.840Z,30.67
2018-08-03T08:13:56.576Z,30.88
2018-08-03T08:16:27.287Z,31.23
2018-08-03T08:18:58.034Z,31.33
2018-08-03T08:21:28.940Z,31.54
2018-08-03T08:23:59.594Z,31.58
2018-08-03T08:26:30.269Z,31.66
2018-08-03T08:29:00.968Z,31.80
2018-08-03T08:31:31.720Z,31.96
2018-08-03T08:34:02.397Z,31.98
2018-08-03T08:36:33.072Z,31.99
2018-08-03T08:39:34.773Z,32.16
2018-08-03T08:42:05.514Z,32.43
2018-08-03T08:44:36.292Z,32.64
2018-08-03T08:47:07.102Z,32.94
2018-08-03T08:49:37.837Z,33.26
2018-08-03T08:52:08.710Z,33.56
2018-08-03T08:54:39.437Z,33.88
2018-08-03T08:57:10.065Z,34.17
2018-08-03T08:59:40.868Z,34.43
2018-08-03T09:02:11.496Z,34.48
2018-08-03T09:04:42.172Z,34.65
2018-08-03T09:07:12.816Z,34.94
2018-08-03T09:09:43.502Z,35.23
2018-08-03T09:12:14.180Z,35.43
2018-08-03T09:14:44.869Z,35.65
2018-08-03T09:17:15.564Z,35.73
2018-08-03T09:19:46.249Z,35.80
2018-08-03T09:22:16.928Z,35.81
2018-08-03T09:24:47.588Z,35.94
2018-08-03T09:27:18.248Z,35.99
2018-08-03T09:29:48.908Z,36.15
2018-08-03T09:32:19.598Z,36.33
2018-08-03T09:34:50.225Z,36.49
2018-08-03T09:37:20.860Z,36.80
2018-08-03T09:39:51.694Z,37.00
2018-08-03T09:42:22.362Z,37.20
2018-08-03T09:44:53.130Z,37.45
2018-08-03T09:47:23.839Z,37.55
2018-08-03T09:49:54.571Z,37.65
2018-08-03T09:52:25.261Z,37.58
2018-08-03T09:54:55.967Z,37.67
2018-08-03T09:57:26.622Z,37.42
2018-08-03T09:59:57.353Z,37.29
2018-08-03T10:02:28.045Z,37.22
2018-08-03T10:04:58.693Z,37.28
2018-08-03T10:07:29.421Z,37.56
2018-08-03T10:10:00.129Z,37.70
2018-08-03T10:12:30.799Z,37.72
2018-08-03T10:15:01.454Z,38.00
2018-08-03T10:17:32.140Z,38.21
2018-08-03T10:20:02.843Z,38.44
2018-08-03T10:22:33.589Z,38.64
2018-08-03T10:25:04.207Z,38.67
2018-08-03T10:27:34.877Z,38.90
2018-08-03T10:30:07.012Z,38.95
2018-08-03T10:32:38.596Z,39.09
2018-08-03T10:35:09.326Z,39.13
2018-08-03T10:37:40.015Z,38.66
2018-08-03T10:40:10.762Z,38.42
2018-08-03T10:42:41.462Z,38.17
2018-08-03T10:45:12.168Z,38.27
2018-08-03T10:47:42.863Z,38.34
2018-08-03T10:50:14.589Z,38.38
2018-08-03T10:52:45.804Z,38.59
2018-08-03T10:55:16.482Z,39.06
2018-08-03T10:57:47.153Z,39.54
2018-08-03T11:00:28.435Z,39.88
2018-08-03T11:02:59.576Z,39.69
2018-08-03T11:05:30.618Z,39.37
2018-08-03T11:08:01.259Z,38.98
2018-08-03T11:10:32.004Z,38.64
2018-08-03T11:13:02.710Z,38.66
2018-08-03T11:15:33.360Z,38.87
2018-08-03T11:18:04.047Z,38.99
2018-08-03T11:20:34.701Z,39.19
2018-08-03T11:23:05.436Z,39.15
2018-08-03T11:25:36.283Z,39.28
2018-08-03T11:28:07.027Z,39.67
2018-08-03T11:30:37.740Z,39.80
2018-08-03T11:33:08.395Z,40.20
2018-08-03T11:35:39.044Z,40.06
2018-08-03T11:38:09.672Z,38.39
2018-08-03T11:40:41.512Z,38.14
2018-08-03T11:43:12.167Z,37.40
2018-08-03T11:45:42.848Z,37.24
2018-08-03T11:48:13.494Z,37.61
2018-08-03T11:50:44.391Z,38.00
2018-08-03T11:53:15.052Z,38.23
2018-08-03T11:55:46.293Z,38.32
2018-08-03T11:58:16.892Z,37.75
2018-08-03T12:00:47.767Z,37.91
2018-08-03T12:03:18.379Z,38.20
2018-08-03T12:05:49.017Z,38.29
2018-08-03T12:08:19.632Z,38.34
2018-08-03T12:10:50.386Z,38.78
2018-08-03T12:13:21.076Z,39.33
2018-08-03T12:15:51.751Z,39.41
2018-08-03T12:18:22.617Z,39.67
2018-08-03T12:20:53.465Z,39.79
2018-08-03T12:23:24.187Z,40.04
2018-08-03T12:25:54.764Z,40.51
2018-08-03T12:28:25.475Z,40.89
2018-08-03T12:30:56.160Z,40.19
2018-08-03T12:33:26.824Z,39.62
2018-08-03T12:35:57.527Z,39.51
2018-08-03T12:38:28.182Z,39.57
2018-08-03T12:40:58.940Z,40.21
2018-08-03T12:43:30.076Z,40.84
2018-08-03T12:46:03.767Z,41.24
2018-08-03T12:48:34.515Z,41.13
2018-08-03T12:51:05.203Z,40.89
2018-08-03T12:53:36.366Z,40.49
2018-08-03T12:56:07.133Z,40.30
2018-08-03T12:58:37.812Z,40.82
2018-08-03T13:01:08.515Z,41.22
2018-08-03T13:03:39.172Z,41.61
2018-08-03T13:06:09.776Z,42.00
2018-08-03T13:08:40.478Z,42.27
2018-08-03T13:11:11.116Z,42.25
2018-08-03T13:13:41.803Z,42.37
2018-08-03T13:16:12.428Z,42.42
2018-08-03T13:18:43.104Z,42.66
2018-08-03T13:21:30.533Z,42.89
2018-08-03T13:24:02.046Z,43.08
2018-08-03T13:26:32.794Z,43.13
2018-08-03T13:29:03.616Z,42.97
2018-08-03T13:31:34.358Z,42.85
2018-08-03T13:34:05.090Z,42.82
2018-08-03T13:36:35.765Z,42.93
2018-08-03T13:39:09.330Z,43.03
2018-08-03T13:41:39.955Z,43.04
2018-08-03T13:44:10.672Z,43.12
2018-08-03T13:46:41.385Z,43.21
2018-08-03T13:49:12.008Z,43.37
2018-08-03T13:51:42.671Z,43.29
2018-08-03T13:54:13.352Z,43.04
2018-08-03T13:56:44.059Z,42.92
2018-08-03T13:59:14.696Z,42.83
2018-08-03T14:02:02.085Z,42.97
2018-08-03T14:04:32.728Z,43.08
2018-08-03T14:07:03.446Z,43.12
2018-08-03T14:09:34.074Z,42.74
2018-08-03T14:12:04.845Z,42.52
2018-08-03T14:14:35.506Z,42.25
2018-08-03T14:17:06.522Z,41.78
2018-08-03T14:19:37.155Z,41.67
2018-08-03T14:22:07.879Z,41.71
2018-08-03T14:24:38.506Z,41.73
2018-08-03T14:27:09.335Z,41.59
2018-08-03T14:29:39.991Z,41.47
2018-08-03T14:32:10.782Z,41.56
2018-08-03T14:34:41.442Z,41.55
2018-08-03T14:37:12.083Z,41.51
2018-08-03T14:39:42.720Z,41.55
2018-08-03T14:42:13.087Z,41.72
2018-08-03T14:44:43.584Z,41.83
2018-08-03T14:47:14.281Z,41.68
2018-08-03T14:49:44.900Z,41.50
2018-08-03T14:52:15.595Z,41.27
2018-08-03T14:54:46.275Z,41.32
2018-08-03T14:57:16.934Z,41.39
2018-08-03T14:59:47.574Z,41.41
2018-08-03T15:02:18.254Z,41.07
2018-08-03T15:04:48.918Z,40.83
2018-08-03T15:07:19.576Z,40.90
2018-08-03T15:09:50.206Z,41.14
2018-08-03T15:12:20.869Z,41.34
2018-08-03T15:14:51.538Z,41.52
2018-08-03T15:17:22.262Z,41.61
2018-08-03T15:19:52.951Z,41.42
2018-08-03T15:22:24.786Z,41.43
2018-08-03T15:24:55.714Z,41.29
2018-08-03T15:27:26.402Z,41.27
2018-08-03T15:29:57.072Z,41.25
2018-08-03T15:32:27.676Z,41.10
2018-08-03T15:34:58.237Z,40.96
2018-08-03T15:37:28.911Z,40.93
2018-08-03T15:39:59.553Z,40.94
2018-08-03T15:42:30.258Z,40.92
2018-08-03T15:45:00.938Z,40.79
2018-08-03T15:47:31.576Z,40.67
2018-08-03T15:50:02.277Z,40.53
2018-08-03T15:52:32.895Z,40.38
2018-08-03T15:55:03.672Z,40.02
2018-08-03T15:57:34.373Z,39.88
2018-08-03T16:00:06.932Z,39.81
2018-08-03T16:02:37.615Z,39.80
2018-08-03T16:05:09.325Z,39.64
2018-08-03T16:07:39.961Z,39.41
2018-08-03T16:10:10.696Z,39.29
2018-08-03T16:12:41.358Z,39.14
2018-08-03T16:15:12.052Z,39.04
2018-08-03T16:17:42.723Z,38.94
2018-08-03T16:20:13.415Z,38.94
2018-08-03T16:22:44.140Z,38.94
2018-08-03T16:25:14.924Z,38.83
2018-08-03T16:27:45.636Z,38.65
2018-08-03T16:30:16.321Z,38.43
2018-08-03T16:32:47.031Z,38.33
2018-08-03T16:35:17.988Z,38.20
2018-08-03T16:37:48.604Z,38.09
2018-08-03T16:40:19.295Z,38.03
2018-08-03T16:42:49.991Z,37.95
2018-08-03T16:45:20.661Z,37.88
2018-08-03T16:47:51.332Z,37.79
2018-08-03T16:50:22.009Z,37.57
2018-08-03T16:52:52.843Z,37.44
2018-08-03T16:55:23.516Z,37.32
2018-08-03T16:57:54.170Z,37.23
2018-08-03T17:00:24.564Z,37.06
2018-08-03T17:02:55.112Z,36.98
2018-08-03T17:05:25.818Z,36.75
2018-08-03T17:07:56.500Z,36.60
2018-08-03T17:10:27.160Z,36.43
2018-08-03T17:12:57.959Z,36.17
2018-08-03T17:15:28.626Z,35.95
2018-08-03T17:17:59.301Z,35.76
2018-08-03T17:20:29.930Z,35.58
2018-08-03T17:23:00.607Z,35.42
2018-08-03T17:25:31.248Z,35.35
2018-08-03T17:28:02.020Z,35.34
2018-08-03T17:30:32.666Z,35.31
2018-08-03T17:33:03.360Z,35.35
2018-08-03T17:35:34.010Z,35.24
2018-08-03T17:38:04.783Z,35.13
2018-08-03T17:40:35.451Z,35.09
2018-08-03T17:43:06.216Z,35.04
2018-08-03T17:45:36.922Z,34.91
2018-08-03T17:48:07.252Z,34.90
2018-08-03T17:50:37.939Z,34.81
2018-08-03T17:53:08.643Z,34.75
2018-08-03T17:55:39.285Z,34.65
2018-08-03T17:58:09.960Z,34.58
2018-08-03T18:00:40.589Z,34.57
2018-08-03T18:03:11.239Z,34.44
2018-08-03T18:05:41.907Z,34.35
2018-08-03T18:08:12.704Z,34.23
2018-08-03T18:10:43.436Z,34.11
2018-08-03T18:13:14.240Z,34.06
2018-08-03T18:15:44.960Z,33.96
2018-08-03T18:18:15.641Z,33.76
2018-08-03T18:20:46.288Z,33.70
2018-08-03T18:23:16.987Z,33.57
2018-08-03T18:25:47.697Z,33.45
2018-08-03T18:28:18.347Z,33.35
2018-08-03T18:30:49.077Z,33.28
2018-08-03T18:33:19.727Z,33.22
2018-08-03T18:35:50.437Z,33.08
2018-08-03T18:38:21.120Z,32.92
2018-08-03T18:40:51.837Z,32.81
2018-08-03T18:43:22.508Z,32.71
2018-08-03T18:45:53.197Z,32.63
2018-08-03T18:48:23.839Z,32.53
2018-08-03T18:50:54.642Z,32.47
2018-08-03T18:53:25.774Z,32.34
2018-08-03T18:55:56.401Z,32.26
2018-08-03T18:58:27.109Z,32.13
2018-08-03T19:00:57.830Z,31.96
2018-08-03T19:03:28.581Z,31.88
2018-08-03T19:05:59.302Z,31.81
2018-08-03T19:08:30.151Z,31.74
2018-08-03T19:11:01.007Z,31.64
2018-08-03T19:13:31.935Z,31.55
2018-08-03T19:16:02.572Z,31.46
2018-08-03T19:18:33.962Z,31.40
2018-08-03T19:21:04.761Z,31.30
2018-08-03T19:23:35.485Z,31.18
2018-08-03T19:26:06.264Z,31.10
2018-08-03T19:28:36.904Z,31.05
2018-08-03T19:31:07.613Z,30.98
2018-08-03T19:33:37.949Z,30.92
2018-08-03T19:36:08.546Z,30.80
2018-08-03T19:38:40.023Z,30.69
2018-08-03T19:41:10.895Z,30.61
2018-08-03T19:43:41.602Z,30.56
2018-08-03T19:46:12.335Z,30.47
2018-08-03T19:48:43.032Z,30.40
2018-08-03T19:51:13.716Z,30.32
2018-08-03T19:53:44.473Z,30.26
2018-08-03T19:56:15.204Z,30.21
2018-08-03T19:58:45.975Z,30.15
2018-08-03T20:01:16.616Z,30.08
2018-08-03T20:03:47.599Z,30.03
2018-08-03T20:06:18.015Z,29.97
2018-08-03T20:08:48.571Z,29.89
2018-08-03T20:11:19.282Z,29.86
2018-08-03T20:13:50.032Z,29.80
2018-08-03T20:16:21.062Z,29.75
2018-08-03T20:18:51.726Z,29.65
2018-08-03T20:21:22.367Z,29.60
2018-08-03T20:23:53.042Z,29.54
2018-08-03T20:26:23.730Z,29.49
2018-08-03T20:28:54.364Z,29.41
2018-08-03T20:31:25.040Z,29.34
2018-08-03T20:33:55.727Z,29.26
2018-08-03T20:36:26.503Z,29.19
2018-08-03T20:38:57.191Z,29.13
2018-08-03T20:41:28.001Z,29.08
2018-08-03T20:43:58.779Z,29.05
2018-08-03T20:46:29.424Z,29.01
2018-08-03T20:49:00.098Z,28.99
2018-08-03T20:51:30.936Z,28.90
2018-08-03T20:54:01.678Z,28.84
2018-08-03T20:56:32.336Z,28.80
2018-08-03T20:59:03.091Z,28.73
2018-08-03T21:01:33.745Z,28.69
2018-08-03T21:04:04.448Z,28.67
2018-08-03T21:06:35.078Z,28.63
2018-08-03T21:09:10.219Z,28.63
2018-08-03T21:11:40.982Z,28.57
2018-08-03T21:14:11.725Z,28.52
2018-08-03T21:16:42.500Z,28.45
2018-08-03T21:19:13.146Z,28.45
2018-08-03T21:21:43.808Z,28.45
2018-08-03T21:24:14.470Z,28.43
2018-08-03T21:26:45.135Z,28.35
2018-08-03T21:29:15.791Z,28.28
2018-08-03T21:31:46.476Z,28.25
2018-08-03T21:34:17.180Z,28.19
2018-08-03T21:36:47.849Z,28.14
2018-08-03T21:39:18.499Z,28.12
2018-08-03T21:41:49.169Z,28.08
2018-08-03T21:44:20.240Z,28.03
2018-08-03T21:46:50.883Z,28.04
2018-08-03T21:49:21.581Z,28.07
2018-08-03T21:51:52.206Z,28.00
2018-08-03T21:54:22.858Z,27.97
2018-08-03T21:56:53.503Z,27.95
2018-08-03T21:59:24.156Z,27.88
2018-08-03T22:01:54.839Z,27.87
2018-08-03T22:04:25.462Z,27.84
2018-08-03T22:06:56.150Z,27.74
2018-08-03T22:09:26.776Z,27.70
2018-08-03T22:11:57.493Z,27.67
2018-08-03T22:14:28.170Z,27.61
2018-08-03T22:16:58.887Z,27.58
2018-08-03T22:19:29.619Z,27.52
2018-08-03T22:22:00.372Z,27.46
2018-08-03T22:24:31.001Z,27.42
2018-08-03T22:27:01.782Z,27.44
2018-08-03T22:29:32.385Z,27.37
2018-08-03T22:32:03.064Z,27.36
2018-08-03T22:34:33.697Z,27.30
2018-08-03T22:37:04.376Z,27.24
2018-08-03T22:39:35.033Z,27.25
2018-08-03T22:42:05.759Z,27.14
2018-08-03T22:44:36.435Z,27.11
2018-08-03T22:47:07.168Z,27.10
2018-08-03T22:49:37.831Z,27.04
2018-08-03T22:52:08.558Z,27.02
2018-08-03T22:54:39.189Z,26.97
2018-08-03T22:57:09.861Z,26.93
2018-08-03T22:59:40.511Z,26.96
2018-08-03T23:02:11.222Z,26.89
2018-08-03T23:04:41.886Z,26.85
2018-08-03T23:07:12.540Z,26.86
2018-08-03T23:09:43.270Z,26.80
2018-08-03T23:12:13.943Z,26.73
2018-08-03T23:14:44.673Z,26.76
2018-08-03T23:17:15.289Z,26.75
2018-08-03T23:19:45.970Z,26.70
2018-08-03T23:22:16.593Z,26.69
2018-08-03T23:24:47.305Z,26.60
2018-08-03T23:27:17.952Z,26.53
2018-08-03T23:29:48.674Z,26.50
2018-08-03T23:32:19.340Z,26.57
2018-08-03T23:34:50.079Z,26.45
2018-08-03T23:37:20.739Z,26.40
2018-08-03T23:39:51.524Z,26.33
2018-08-03T23:42:22.219Z,26.33
2018-08-03T23:44:52.920Z,26.22
2018-08-03T23:47:23.629Z,26.17
2018-08-03T23:49:54.330Z,26.11
2018-08-03T23:52:25.037Z,26.08
2018-08-03T23:54:55.822Z,26.07
2018-08-03T23:57:26.552Z,26.01
2018-08-03T23:59:57.291Z,26.03
